sensor_id;sensor_type;location;lat;lon;timestamp;P1;durP1;ratioP1;P2;durP2;ratioP2
73575;SDS011;61859;49.204;8.140;2024-03-23T00:52:39;8.93;;;5.80;;
73575;SDS011;61859;49.204;8.140;2024-03-23T00:55:05;9.03;;;5.27;;
73575;SDS011;61859;49.204;8.140;2024-03-23T00:57:31;6.50;;;5.00;;
73575;SDS011;61859;49.204;8.140;2024-03-23T00:59:57;8.50;;;5.43;;
73575;SDS011;61859;49.204;8.140;2024-03-23T01:02:22;8.97;;;5.57;;
73575;SDS011;61859;49.204;8.140;2024-03-23T01:04:48;8.67;;;5.87;;
73575;SDS011;61859;49.204;8.140;2024-03-23T01:07:13;11.33;;;6.83;;
73575;SDS011;61859;49.204;8.140;2024-03-23T01:09:39;8.17;;;5.83;;
73575;SDS011;61859;49.204;8.140;2024-03-23T01:12:05;6.67;;;5.97;;
73575;SDS011;61859;49.204;8.140;2024-03-23T01:14:30;8.63;;;5.40;;
73575;SDS011;61859;49.204;8.140;2024-03-23T01:16:56;8.57;;;5.50;;
73575;SDS011;61859;49.204;8.140;2024-03-23T01:19:21;7.97;;;6.30;;
73575;SDS011;61859;49.204;8.140;2024-03-23T01:21:47;8.10;;;5.67;;
73575;SDS011;61859;49.204;8.140;2024-03-23T01:24:14;6.60;;;5.90;;
73575;SDS011;61859;49.204;8.140;2024-03-23T01:26:39;8.03;;;6.43;;
73575;SDS011;61859;49.204;8.140;2024-03-23T01:29:05;8.73;;;7.17;;
73575;SDS011;61859;49.204;8.140;2024-03-23T01:31:30;11.37;;;7.37;;
73575;SDS011;61859;49.204;8.140;2024-03-23T01:33:56;9.20;;;6.60;;
73575;SDS011;61859;49.204;8.140;2024-03-23T01:36:23;6.57;;;5.30;;
73575;SDS011;61859;49.204;8.140;2024-03-23T01:38:49;5.93;;;5.07;;
73575;SDS011;61859;49.204;8.140;2024-03-23T01:41:15;6.17;;;5.37;;
73575;SDS011;61859;49.204;8.140;2024-03-23T01:43:40;9.70;;;5.23;;
73575;SDS011;61859;49.204;8.140;2024-03-23T01:46:06;6.97;;;4.73;;
73575;SDS011;61859;49.204;8.140;2024-03-23T01:48:32;7.13;;;4.50;;
73575;SDS011;61859;49.204;8.140;2024-03-23T01:50:58;6.30;;;4.73;;
73575;SDS011;61859;49.204;8.140;2024-03-23T01:53:24;6.40;;;4.63;;
73575;SDS011;61859;49.204;8.140;2024-03-23T01:55:50;7.00;;;5.40;;
73575;SDS011;61859;49.204;8.140;2024-03-23T01:58:16;6.77;;;4.70;;
73575;SDS011;61859;49.204;8.140;2024-03-23T02:00:42;6.20;;;4.83;;
73575;SDS011;61859;49.204;8.140;2024-03-23T02:05:54;7.20;;;5.33;;
73575;SDS011;61859;49.204;8.140;2024-03-23T02:08:22;8.43;;;5.40;;
73575;SDS011;61859;49.204;8.140;2024-03-23T02:10:51;5.33;;;4.40;;
73575;SDS011;61859;49.204;8.140;2024-03-23T02:13:17;6.93;;;4.87;;
73575;SDS011;61859;49.204;8.140;2024-03-23T02:15:43;6.87;;;4.53;;
73575;SDS011;61859;49.204;8.140;2024-03-23T02:18:09;8.30;;;4.87;;
73575;SDS011;61859;49.204;8.140;2024-03-23T02:20:35;8.43;;;4.53;;
73575;SDS011;61859;49.204;8.140;2024-03-23T02:23:02;6.60;;;5.00;;
73575;SDS011;61859;49.204;8.140;2024-03-23T02:25:28;7.27;;;5.50;;
73575;SDS011;61859;49.204;8.140;2024-03-23T02:27:53;7.77;;;5.53;;
73575;SDS011;61859;49.204;8.140;2024-03-23T02:30:20;5.60;;;4.97;;
73575;SDS011;61859;49.204;8.140;2024-03-23T02:32:45;7.73;;;5.90;;
73575;SDS011;61859;49.204;8.140;2024-03-23T02:35:11;13.13;;;7.20;;
73575;SDS011;61859;49.204;8.140;2024-03-23T02:37:37;8.67;;;6.40;;
73575;SDS011;61859;49.204;8.140;2024-03-23T02:40:02;10.63;;;6.77;;
73575;SDS011;61859;49.204;8.140;2024-03-23T02:42:28;9.67;;;6.43;;
73575;SDS011;61859;49.204;8.140;2024-03-23T02:44:54;9.30;;;7.00;;
73575;SDS011;61859;49.204;8.140;2024-03-23T02:47:19;10.23;;;7.03;;
73575;SDS011;61859;49.204;8.140;2024-03-23T02:49:45;9.23;;;5.57;;
73575;SDS011;61859;49.204;8.140;2024-03-23T02:52:10;11.47;;;7.13;;
73575;SDS011;61859;49.204;8.140;2024-03-23T02:54:36;6.70;;;5.37;;
73575;SDS011;61859;49.204;8.140;2024-03-23T02:57:02;9.40;;;6.50;;
73575;SDS011;61859;49.204;8.140;2024-03-23T02:59:27;10.07;;;6.27;;
73575;SDS011;61859;49.204;8.140;2024-03-23T03:01:53;10.83;;;6.90;;
73575;SDS011;61859;49.204;8.140;2024-03-23T03:04:19;7.87;;;6.20;;
73575;SDS011;61859;49.204;8.140;2024-03-23T03:06:48;9.73;;;6.70;;
73575;SDS011;61859;49.204;8.140;2024-03-23T03:09:13;8.80;;;6.10;;
73575;SDS011;61859;49.204;8.140;2024-03-23T03:11:39;9.67;;;6.63;;
73575;SDS011;61859;49.204;8.140;2024-03-23T03:14:04;10.27;;;7.17;;
73575;SDS011;61859;49.204;8.140;2024-03-23T03:16:32;12.40;;;7.33;;
73575;SDS011;61859;49.204;8.140;2024-03-23T03:18:57;11.40;;;6.83;;
73575;SDS011;61859;49.204;8.140;2024-03-23T03:21:23;12.47;;;7.10;;
73575;SDS011;61859;49.204;8.140;2024-03-23T03:23:49;14.00;;;8.17;;
73575;SDS011;61859;49.204;8.140;2024-03-23T03:26:15;11.20;;;7.63;;
73575;SDS011;61859;49.204;8.140;2024-03-23T03:28:43;13.17;;;8.70;;
73575;SDS011;61859;49.204;8.140;2024-03-23T03:31:13;12.27;;;8.23;;
73575;SDS011;61859;49.204;8.140;2024-03-23T03:33:40;12.03;;;8.60;;
73575;SDS011;61859;49.204;8.140;2024-03-23T03:36:05;12.70;;;8.60;;
73575;SDS011;61859;49.204;8.140;2024-03-23T03:38:31;14.63;;;9.80;;
73575;SDS011;61859;49.204;8.140;2024-03-23T03:40:56;12.10;;;7.77;;
73575;SDS011;61859;49.204;8.140;2024-03-23T03:43:23;13.10;;;9.03;;
73575;SDS011;61859;49.204;8.140;2024-03-23T03:45:53;11.13;;;6.93;;
73575;SDS011;61859;49.204;8.140;2024-03-23T03:48:19;14.00;;;9.00;;
73575;SDS011;61859;49.204;8.140;2024-03-23T03:50:44;11.67;;;7.50;;
73575;SDS011;61859;49.204;8.140;2024-03-23T03:53:10;10.67;;;6.77;;
73575;SDS011;61859;49.204;8.140;2024-03-23T03:55:36;8.67;;;5.83;;
73575;SDS011;61859;49.204;8.140;2024-03-23T03:58:02;7.10;;;5.43;;
73575;SDS011;61859;49.204;8.140;2024-03-23T04:00:27;7.73;;;5.50;;
73575;SDS011;61859;49.204;8.140;2024-03-23T04:02:53;9.57;;;6.47;;
73575;SDS011;61859;49.204;8.140;2024-03-23T04:05:19;9.23;;;6.00;;
73575;SDS011;61859;49.204;8.140;2024-03-23T04:07:45;8.93;;;5.17;;
73575;SDS011;61859;49.204;8.140;2024-03-23T04:10:10;7.63;;;5.10;;
73575;SDS011;61859;49.204;8.140;2024-03-23T04:12:36;8.77;;;5.90;;
73575;SDS011;61859;49.204;8.140;2024-03-23T04:15:02;8.23;;;5.20;;
73575;SDS011;61859;49.204;8.140;2024-03-23T04:17:29;11.23;;;4.10;;
73575;SDS011;61859;49.204;8.140;2024-03-23T04:19:57;5.57;;;4.20;;
73575;SDS011;61859;49.204;8.140;2024-03-23T04:22:23;5.43;;;4.67;;
73575;SDS011;61859;49.204;8.140;2024-03-23T04:24:51;6.43;;;4.60;;
73575;SDS011;61859;49.204;8.140;2024-03-23T04:27:23;4.53;;;3.70;;
73575;SDS011;61859;49.204;8.140;2024-03-23T04:29:49;5.47;;;3.63;;
73575;SDS011;61859;49.204;8.140;2024-03-23T04:32:15;5.00;;;2.93;;
73575;SDS011;61859;49.204;8.140;2024-03-23T04:34:42;3.10;;;2.50;;
73575;SDS011;61859;49.204;8.140;2024-03-23T04:37:08;3.73;;;2.80;;
73575;SDS011;61859;49.204;8.140;2024-03-23T04:39:35;2.90;;;2.50;;
73575;SDS011;61859;49.204;8.140;2024-03-23T04:42:02;3.10;;;2.63;;
73575;SDS011;61859;49.204;8.140;2024-03-23T04:44:28;3.60;;;2.30;;
73575;SDS011;61859;49.204;8.140;2024-03-23T04:46:54;2.90;;;2.20;;
73575;SDS011;61859;49.204;8.140;2024-03-23T04:49:19;2.70;;;2.10;;
73575;SDS011;61859;49.204;8.140;2024-03-23T04:51:45;2.87;;;1.93;;
73575;SDS011;61859;49.204;8.140;2024-03-23T04:54:14;3.40;;;1.57;;
73575;SDS011;61859;49.204;8.140;2024-03-23T04:56:40;3.33;;;1.83;;
73575;SDS011;61859;49.204;8.140;2024-03-23T04:59:06;3.60;;;2.33;;
73575;SDS011;61859;49.204;8.140;2024-03-23T05:01:31;1.40;;;1.30;;
73575;SDS011;61859;49.204;8.140;2024-03-23T05:03:57;1.77;;;1.67;;
73575;SDS011;61859;49.204;8.140;2024-03-23T05:06:23;1.77;;;1.67;;
73575;SDS011;61859;49.204;8.140;2024-03-23T05:08:49;2.83;;;2.00;;
73575;SDS011;61859;49.204;8.140;2024-03-23T05:11:15;2.27;;;1.97;;
73575;SDS011;61859;49.204;8.140;2024-03-23T05:13:40;2.00;;;1.80;;
73575;SDS011;61859;49.204;8.140;2024-03-23T05:16:06;1.50;;;1.40;;
73575;SDS011;61859;49.204;8.140;2024-03-23T05:18:33;1.80;;;1.70;;
73575;SDS011;61859;49.204;8.140;2024-03-23T05:20:59;1.67;;;1.40;;
73575;SDS011;61859;49.204;8.140;2024-03-23T05:23:25;2.00;;;1.50;;
73575;SDS011;61859;49.204;8.140;2024-03-23T05:25:51;1.50;;;1.33;;
73575;SDS011;61859;49.204;8.140;2024-03-23T05:28:17;1.67;;;1.57;;
73575;SDS011;61859;49.204;8.140;2024-03-23T05:30:43;2.20;;;1.30;;
73575;SDS011;61859;49.204;8.140;2024-03-23T05:33:08;1.90;;;1.50;;
73575;SDS011;61859;49.204;8.140;2024-03-23T05:35:34;1.30;;;1.20;;
73575;SDS011;61859;49.204;8.140;2024-03-23T05:38:00;0.90;;;0.90;;
73575;SDS011;61859;49.204;8.140;2024-03-23T05:40:26;1.03;;;0.90;;
73575;SDS011;61859;49.204;8.140;2024-03-23T05:42:51;1.50;;;1.37;;
73575;SDS011;61859;49.204;8.140;2024-03-23T05:45:23;0.60;;;0.60;;
73575;SDS011;61859;49.204;8.140;2024-03-23T05:47:48;0.90;;;0.90;;
73575;SDS011;61859;49.204;8.140;2024-03-23T05:50:14;2.17;;;1.40;;
73575;SDS011;61859;49.204;8.140;2024-03-23T05:52:40;2.53;;;1.40;;
73575;SDS011;61859;49.204;8.140;2024-03-23T05:55:06;1.50;;;0.83;;
73575;SDS011;61859;49.204;8.140;2024-03-23T05:57:32;1.50;;;1.40;;
73575;SDS011;61859;49.204;8.140;2024-03-23T05:59:57;0.63;;;0.60;;
73575;SDS011;61859;49.204;8.140;2024-03-23T06:02:23;0.67;;;0.67;;
73575;SDS011;61859;49.204;8.140;2024-03-23T06:04:49;1.30;;;0.80;;
73575;SDS011;61859;49.204;8.140;2024-03-23T06:07:15;0.20;;;0.20;;
73575;SDS011;61859;49.204;8.140;2024-03-23T06:09:41;0.80;;;0.70;;
73575;SDS011;61859;49.204;8.140;2024-03-23T06:12:07;0.40;;;0.37;;
73575;SDS011;61859;49.204;8.140;2024-03-23T06:14:32;0.60;;;0.60;;
73575;SDS011;61859;49.204;8.140;2024-03-23T06:16:59;0.30;;;0.20;;
73575;SDS011;61859;49.204;8.140;2024-03-23T06:19:25;0.57;;;0.20;;
73575;SDS011;61859;49.204;8.140;2024-03-23T06:21:52;0.10;;;0.10;;
73575;SDS011;61859;49.204;8.140;2024-03-23T06:24:24;0.40;;;0.40;;
73575;SDS011;61859;49.204;8.140;2024-03-23T06:26:49;0.27;;;0.27;;
73575;SDS011;61859;49.204;8.140;2024-03-23T06:29:15;0.30;;;0.30;;
73575;SDS011;61859;49.204;8.140;2024-03-23T06:31:40;0.23;;;0.20;;
73575;SDS011;61859;49.204;8.140;2024-03-23T06:34:06;0.20;;;0.10;;
73575;SDS011;61859;49.204;8.140;2024-03-23T06:36:32;0.20;;;0.20;;
73575;SDS011;61859;49.204;8.140;2024-03-23T06:38:57;1.20;;;0.20;;
73575;SDS011;61859;49.204;8.140;2024-03-23T06:41:23;0.10;;;0.10;;
73575;SDS011;61859;49.204;8.140;2024-03-23T06:43:49;0.20;;;0.13;;
73575;SDS011;61859;49.204;8.140;2024-03-23T06:46:15;0.00;;;0.00;;
73575;SDS011;61859;49.204;8.140;2024-03-23T06:48:40;0.90;;;0.20;;
73575;SDS011;61859;49.204;8.140;2024-03-23T06:51:06;0.27;;;0.20;;
73575;SDS011;61859;49.204;8.140;2024-03-23T06:53:31;0.30;;;0.30;;
73575;SDS011;61859;49.204;8.140;2024-03-23T06:55:57;0.90;;;0.40;;
73575;SDS011;61859;49.204;8.140;2024-03-23T06:58:24;0.20;;;0.20;;
73575;SDS011;61859;49.204;8.140;2024-03-23T07:00:50;0.20;;;0.20;;
73575;SDS011;61859;49.204;8.140;2024-03-23T07:03:18;0.27;;;0.27;;
73575;SDS011;61859;49.204;8.140;2024-03-23T07:05:45;2.37;;;0.30;;
73575;SDS011;61859;49.204;8.140;2024-03-23T07:08:11;0.20;;;0.20;;
73575;SDS011;61859;49.204;8.140;2024-03-23T07:10:39;0.57;;;0.33;;
73575;SDS011;61859;49.204;8.140;2024-03-23T07:13:05;0.30;;;0.20;;
73575;SDS011;61859;49.204;8.140;2024-03-23T07:15:30;0.20;;;0.20;;
73575;SDS011;61859;49.204;8.140;2024-03-23T07:17:56;0.50;;;0.50;;
73575;SDS011;61859;49.204;8.140;2024-03-23T07:20:22;0.30;;;0.27;;
73575;SDS011;61859;49.204;8.140;2024-03-23T07:22:47;0.30;;;0.30;;
73575;SDS011;61859;49.204;8.140;2024-03-23T07:25:13;0.30;;;0.30;;
73575;SDS011;61859;49.204;8.140;2024-03-23T07:27:38;1.40;;;0.70;;
73575;SDS011;61859;49.204;8.140;2024-03-23T07:30:04;1.17;;;0.80;;
73575;SDS011;61859;49.204;8.140;2024-03-23T07:32:30;1.50;;;0.70;;
73575;SDS011;61859;49.204;8.140;2024-03-23T07:34:56;1.13;;;0.80;;
73575;SDS011;61859;49.204;8.140;2024-03-23T07:37:21;1.23;;;0.93;;
73575;SDS011;61859;49.204;8.140;2024-03-23T07:39:47;1.43;;;0.80;;
73575;SDS011;61859;49.204;8.140;2024-03-23T07:42:12;1.73;;;0.97;;
73575;SDS011;61859;49.204;8.140;2024-03-23T07:44:38;2.93;;;1.10;;
73575;SDS011;61859;49.204;8.140;2024-03-23T07:47:03;2.23;;;1.03;;
73575;SDS011;61859;49.204;8.140;2024-03-23T07:49:29;1.70;;;1.10;;
73575;SDS011;61859;49.204;8.140;2024-03-23T07:51:55;2.30;;;1.80;;
73575;SDS011;61859;49.204;8.140;2024-03-23T07:54:20;3.33;;;1.70;;
73575;SDS011;61859;49.204;8.140;2024-03-23T07:56:46;1.83;;;1.33;;
73575;SDS011;61859;49.204;8.140;2024-03-23T07:59:12;4.73;;;1.53;;
73575;SDS011;61859;49.204;8.140;2024-03-23T08:01:37;4.03;;;1.40;;
73575;SDS011;61859;49.204;8.140;2024-03-23T08:04:03;7.33;;;1.73;;
73575;SDS011;61859;49.204;8.140;2024-03-23T08:06:28;3.07;;;1.67;;
73575;SDS011;61859;49.204;8.140;2024-03-23T08:08:54;3.70;;;1.37;;
73575;SDS011;61859;49.204;8.140;2024-03-23T08:11:27;1.20;;;1.00;;
73575;SDS011;61859;49.204;8.140;2024-03-23T08:13:56;1.50;;;1.13;;
73575;SDS011;61859;49.204;8.140;2024-03-23T08:16:22;3.43;;;1.57;;
73575;SDS011;61859;49.204;8.140;2024-03-23T08:18:48;4.53;;;1.70;;
73575;SDS011;61859;49.204;8.140;2024-03-23T08:21:16;3.73;;;1.50;;
73575;SDS011;61859;49.204;8.140;2024-03-23T08:23:41;3.17;;;1.63;;
73575;SDS011;61859;49.204;8.140;2024-03-23T08:26:08;3.83;;;1.40;;
73575;SDS011;61859;49.204;8.140;2024-03-23T08:28:35;6.87;;;2.00;;
73575;SDS011;61859;49.204;8.140;2024-03-23T08:31:01;4.00;;;2.03;;
73575;SDS011;61859;49.204;8.140;2024-03-23T08:33:28;2.77;;;1.60;;
73575;SDS011;61859;49.204;8.140;2024-03-23T08:38:21;2.87;;;1.80;;
73575;SDS011;61859;49.204;8.140;2024-03-23T08:40:47;5.10;;;1.90;;
73575;SDS011;61859;49.204;8.140;2024-03-23T08:43:12;5.07;;;2.20;;
73575;SDS011;61859;49.204;8.140;2024-03-23T08:45:38;5.20;;;1.60;;
73575;SDS011;61859;49.204;8.140;2024-03-23T08:48:04;4.70;;;2.10;;
73575;SDS011;61859;49.204;8.140;2024-03-23T08:50:29;4.87;;;2.00;;
73575;SDS011;61859;49.204;8.140;2024-03-23T08:52:55;3.27;;;2.00;;
73575;SDS011;61859;49.204;8.140;2024-03-23T08:55:20;3.17;;;1.70;;
73575;SDS011;61859;49.204;8.140;2024-03-23T08:57:46;6.37;;;2.27;;
73575;SDS011;61859;49.204;8.140;2024-03-23T09:00:12;2.87;;;1.77;;
73575;SDS011;61859;49.204;8.140;2024-03-23T09:02:38;5.50;;;2.10;;
73575;SDS011;61859;49.204;8.140;2024-03-23T09:05:03;5.43;;;2.37;;
73575;SDS011;61859;49.204;8.140;2024-03-23T09:07:30;3.13;;;1.93;;
73575;SDS011;61859;49.204;8.140;2024-03-23T09:09:56;5.97;;;2.53;;
73575;SDS011;61859;49.204;8.140;2024-03-23T09:12:22;5.77;;;2.13;;
73575;SDS011;61859;49.204;8.140;2024-03-23T09:14:47;10.60;;;3.33;;
73575;SDS011;61859;49.204;8.140;2024-03-23T09:17:14;6.07;;;3.10;;
73575;SDS011;61859;49.204;8.140;2024-03-23T09:19:40;5.17;;;2.70;;
73575;SDS011;61859;49.204;8.140;2024-03-23T09:22:05;6.00;;;2.00;;
73575;SDS011;61859;49.204;8.140;2024-03-23T09:24:31;4.93;;;2.23;;
73575;SDS011;61859;49.204;8.140;2024-03-23T09:26:57;4.30;;;1.80;;
73575;SDS011;61859;49.204;8.140;2024-03-23T09:29:22;6.17;;;2.60;;
73575;SDS011;61859;49.204;8.140;2024-03-23T09:31:48;4.73;;;2.17;;
73575;SDS011;61859;49.204;8.140;2024-03-23T09:34:14;4.77;;;2.20;;
73575;SDS011;61859;49.204;8.140;2024-03-23T09:36:40;8.43;;;2.33;;
73575;SDS011;61859;49.204;8.140;2024-03-23T09:39:06;6.73;;;2.03;;
73575;SDS011;61859;49.204;8.140;2024-03-23T09:41:34;3.90;;;1.90;;
73575;SDS011;61859;49.204;8.140;2024-03-23T09:44:00;3.17;;;1.97;;
73575;SDS011;61859;49.204;8.140;2024-03-23T09:46:26;2.57;;;1.50;;
73575;SDS011;61859;49.204;8.140;2024-03-23T09:48:53;3.33;;;1.80;;
73575;SDS011;61859;49.204;8.140;2024-03-23T09:51:20;4.70;;;1.53;;
73575;SDS011;61859;49.204;8.140;2024-03-23T09:53:46;5.57;;;2.03;;
73575;SDS011;61859;49.204;8.140;2024-03-23T09:56:11;3.90;;;2.30;;
73575;SDS011;61859;49.204;8.140;2024-03-23T09:58:37;4.03;;;1.40;;
73575;SDS011;61859;49.204;8.140;2024-03-23T10:01:03;3.00;;;1.60;;
73575;SDS011;61859;49.204;8.140;2024-03-23T10:03:29;3.00;;;1.50;;
73575;SDS011;61859;49.204;8.140;2024-03-23T10:06:03;3.30;;;1.87;;
73575;SDS011;61859;49.204;8.140;2024-03-23T10:08:30;4.00;;;1.83;;
73575;SDS011;61859;49.204;8.140;2024-03-23T10:10:56;3.70;;;1.73;;
73575;SDS011;61859;49.204;8.140;2024-03-23T10:13:25;4.90;;;2.00;;
73575;SDS011;61859;49.204;8.140;2024-03-23T10:15:55;4.77;;;2.47;;
73575;SDS011;61859;49.204;8.140;2024-03-23T10:18:22;7.57;;;2.60;;
73575;SDS011;61859;49.204;8.140;2024-03-23T10:21:00;4.57;;;2.10;;
73575;SDS011;61859;49.204;8.140;2024-03-23T10:23:33;4.20;;;1.73;;
73575;SDS011;61859;49.204;8.140;2024-03-23T10:26:18;7.37;;;3.13;;
73575;SDS011;61859;49.204;8.140;2024-03-23T10:28:54;4.73;;;1.93;;
73575;SDS011;61859;49.204;8.140;2024-03-23T10:31:23;3.30;;;2.10;;
73575;SDS011;61859;49.204;8.140;2024-03-23T10:33:48;4.30;;;2.07;;
73575;SDS011;61859;49.204;8.140;2024-03-23T10:36:15;5.20;;;2.07;;
73575;SDS011;61859;49.204;8.140;2024-03-23T10:38:41;2.70;;;1.83;;
73575;SDS011;61859;49.204;8.140;2024-03-23T10:41:08;5.23;;;1.80;;
73575;SDS011;61859;49.204;8.140;2024-03-23T10:43:35;4.30;;;2.03;;
73575;SDS011;61859;49.204;8.140;2024-03-23T10:46:01;4.57;;;1.90;;
73575;SDS011;61859;49.204;8.140;2024-03-23T10:48:27;1.93;;;1.07;;
73575;SDS011;61859;49.204;8.140;2024-03-23T10:50:53;5.27;;;1.70;;
73575;SDS011;61859;49.204;8.140;2024-03-23T10:53:19;3.67;;;1.47;;
73575;SDS011;61859;49.204;8.140;2024-03-23T10:55:47;4.03;;;1.30;;
73575;SDS011;61859;49.204;8.140;2024-03-23T10:58:14;4.07;;;1.03;;
73575;SDS011;61859;49.204;8.140;2024-03-23T11:00:42;2.63;;;1.00;;
73575;SDS011;61859;49.204;8.140;2024-03-23T11:03:29;6.90;;;3.07;;
73575;SDS011;61859;49.204;8.140;2024-03-23T11:05:58;2.43;;;0.97;;
73575;SDS011;61859;49.204;8.140;2024-03-23T11:08:38;3.97;;;1.80;;
73575;SDS011;61859;49.204;8.140;2024-03-23T11:13:42;1.63;;;1.00;;
73575;SDS011;61859;49.204;8.140;2024-03-23T11:16:26;1.47;;;1.07;;
73575;SDS011;61859;49.204;8.140;2024-03-23T11:18:55;2.17;;;0.80;;
73575;SDS011;61859;49.204;8.140;2024-03-23T11:21:59;1.77;;;0.90;;
73575;SDS011;61859;49.204;8.140;2024-03-23T11:24:26;4.03;;;1.20;;
73575;SDS011;61859;49.204;8.140;2024-03-23T11:26:51;4.60;;;1.37;;
73575;SDS011;61859;49.204;8.140;2024-03-23T11:29:17;2.07;;;1.33;;
73575;SDS011;61859;49.204;8.140;2024-03-23T11:31:47;1.90;;;1.00;;
73575;SDS011;61859;49.204;8.140;2024-03-23T11:34:13;1.17;;;0.97;;
73575;SDS011;61859;49.204;8.140;2024-03-23T11:36:41;2.67;;;1.03;;
73575;SDS011;61859;49.204;8.140;2024-03-23T11:39:13;6.43;;;1.80;;
73575;SDS011;61859;49.204;8.140;2024-03-23T11:41:49;1.20;;;0.43;;
73575;SDS011;61859;49.204;8.140;2024-03-23T11:44:16;2.73;;;1.47;;
73575;SDS011;61859;49.204;8.140;2024-03-23T11:46:46;2.77;;;1.67;;
73575;SDS011;61859;49.204;8.140;2024-03-23T11:49:24;1.30;;;1.20;;
73575;SDS011;61859;49.204;8.140;2024-03-23T11:51:51;3.17;;;1.77;;
73575;SDS011;61859;49.204;8.140;2024-03-23T11:54:21;3.80;;;1.13;;
73575;SDS011;61859;49.204;8.140;2024-03-23T11:56:57;3.97;;;2.30;;
73575;SDS011;61859;49.204;8.140;2024-03-23T11:59:33;3.00;;;1.47;;
73575;SDS011;61859;49.204;8.140;2024-03-23T12:01:59;4.30;;;1.20;;
73575;SDS011;61859;49.204;8.140;2024-03-23T12:04:28;1.67;;;1.23;;
73575;SDS011;61859;49.204;8.140;2024-03-23T12:09:46;1.20;;;0.80;;
73575;SDS011;61859;49.204;8.140;2024-03-23T12:12:16;1.90;;;1.07;;
73575;SDS011;61859;49.204;8.140;2024-03-23T12:14:45;2.10;;;1.03;;
73575;SDS011;61859;49.204;8.140;2024-03-23T12:17:27;5.37;;;1.57;;
73575;SDS011;61859;49.204;8.140;2024-03-23T12:19:52;3.63;;;1.53;;
73575;SDS011;61859;49.204;8.140;2024-03-23T12:22:21;4.43;;;2.10;;
73575;SDS011;61859;49.204;8.140;2024-03-23T12:24:47;5.80;;;1.53;;
73575;SDS011;61859;49.204;8.140;2024-03-23T12:27:12;2.37;;;1.97;;
73575;SDS011;61859;49.204;8.140;2024-03-23T12:29:38;5.20;;;2.10;;
73575;SDS011;61859;49.204;8.140;2024-03-23T12:32:04;3.97;;;1.60;;
73575;SDS011;61859;49.204;8.140;2024-03-23T12:34:30;1.63;;;0.87;;
73575;SDS011;61859;49.204;8.140;2024-03-23T12:36:56;3.40;;;0.80;;
73575;SDS011;61859;49.204;8.140;2024-03-23T12:39:22;3.13;;;1.13;;
73575;SDS011;61859;49.204;8.140;2024-03-23T12:41:47;1.07;;;0.90;;
73575;SDS011;61859;49.204;8.140;2024-03-23T12:44:13;2.00;;;1.10;;
73575;SDS011;61859;49.204;8.140;2024-03-23T12:46:40;2.67;;;0.90;;
73575;SDS011;61859;49.204;8.140;2024-03-23T12:49:06;0.77;;;0.57;;
73575;SDS011;61859;49.204;8.140;2024-03-23T12:51:32;2.37;;;0.53;;
73575;SDS011;61859;49.204;8.140;2024-03-23T12:53:58;2.03;;;1.10;;
73575;SDS011;61859;49.204;8.140;2024-03-23T12:56:24;4.23;;;1.07;;
73575;SDS011;61859;49.204;8.140;2024-03-23T12:58:50;0.87;;;0.60;;
73575;SDS011;61859;49.204;8.140;2024-03-23T13:01:19;2.07;;;1.03;;
73575;SDS011;61859;49.204;8.140;2024-03-23T13:03:47;1.27;;;0.57;;
73575;SDS011;61859;49.204;8.140;2024-03-23T13:06:14;0.73;;;0.60;;
73575;SDS011;61859;49.204;8.140;2024-03-23T13:08:40;2.13;;;0.90;;
73575;SDS011;61859;49.204;8.140;2024-03-23T13:11:07;1.97;;;0.60;;
73575;SDS011;61859;49.204;8.140;2024-03-23T13:13:34;1.70;;;0.87;;
73575;SDS011;61859;49.204;8.140;2024-03-23T13:15:59;1.83;;;1.20;;
73575;SDS011;61859;49.204;8.140;2024-03-23T13:18:25;2.10;;;0.43;;
73575;SDS011;61859;49.204;8.140;2024-03-23T13:20:51;2.47;;;0.90;;
73575;SDS011;61859;49.204;8.140;2024-03-23T13:23:17;1.93;;;0.50;;
73575;SDS011;61859;49.204;8.140;2024-03-23T13:25:49;0.83;;;0.40;;
73575;SDS011;61859;49.204;8.140;2024-03-23T13:28:18;1.23;;;0.30;;
73575;SDS011;61859;49.204;8.140;2024-03-23T13:30:54;1.50;;;0.57;;
73575;SDS011;61859;49.204;8.140;2024-03-23T13:33:21;2.93;;;0.63;;
73575;SDS011;61859;49.204;8.140;2024-03-23T13:35:50;3.73;;;1.10;;
73575;SDS011;61859;49.204;8.140;2024-03-23T13:38:16;1.73;;;0.80;;
73575;SDS011;61859;49.204;8.140;2024-03-23T13:40:55;1.23;;;1.13;;
73575;SDS011;61859;49.204;8.140;2024-03-23T13:43:22;0.60;;;0.60;;
73575;SDS011;61859;49.204;8.140;2024-03-23T13:45:49;1.20;;;1.10;;
73575;SDS011;61859;49.204;8.140;2024-03-23T13:48:18;2.90;;;1.70;;
73575;SDS011;61859;49.204;8.140;2024-03-23T13:50:56;0.93;;;0.73;;
73575;SDS011;61859;49.204;8.140;2024-03-23T13:53:22;2.47;;;1.10;;
73575;SDS011;61859;49.204;8.140;2024-03-23T13:55:48;1.73;;;1.03;;
73575;SDS011;61859;49.204;8.140;2024-03-23T13:58:14;0.73;;;0.50;;
73575;SDS011;61859;49.204;8.140;2024-03-23T14:00:40;2.10;;;0.97;;
73575;SDS011;61859;49.204;8.140;2024-03-23T14:03:08;1.63;;;0.93;;
73575;SDS011;61859;49.204;8.140;2024-03-23T14:05:37;1.97;;;1.40;;
73575;SDS011;61859;49.204;8.140;2024-03-23T14:08:08;4.30;;;1.77;;
73575;SDS011;61859;49.204;8.140;2024-03-23T14:10:34;2.93;;;2.20;;
73575;SDS011;61859;49.204;8.140;2024-03-23T14:13:01;2.53;;;1.30;;
73575;SDS011;61859;49.204;8.140;2024-03-23T14:15:28;1.87;;;1.10;;
73575;SDS011;61859;49.204;8.140;2024-03-23T14:17:55;1.10;;;1.00;;
73575;SDS011;61859;49.204;8.140;2024-03-23T14:20:21;2.10;;;1.17;;
73575;SDS011;61859;49.204;8.140;2024-03-23T14:22:47;4.23;;;1.07;;
73575;SDS011;61859;49.204;8.140;2024-03-23T14:25:13;5.17;;;2.67;;
73575;SDS011;61859;49.204;8.140;2024-03-23T14:27:38;1.73;;;1.13;;
73575;SDS011;61859;49.204;8.140;2024-03-23T14:30:04;1.97;;;0.73;;
73575;SDS011;61859;49.204;8.140;2024-03-23T14:32:30;1.07;;;0.50;;
73575;SDS011;61859;49.204;8.140;2024-03-23T14:35:02;1.03;;;0.40;;
73575;SDS011;61859;49.204;8.140;2024-03-23T14:37:28;2.73;;;0.60;;
73575;SDS011;61859;49.204;8.140;2024-03-23T14:39:57;0.83;;;0.77;;
73575;SDS011;61859;49.204;8.140;2024-03-23T14:42:23;2.43;;;1.23;;
73575;SDS011;61859;49.204;8.140;2024-03-23T14:44:49;2.20;;;0.83;;
73575;SDS011;61859;49.204;8.140;2024-03-23T14:47:16;2.07;;;0.80;;
73575;SDS011;61859;49.204;8.140;2024-03-23T14:49:42;11.10;;;5.40;;
73575;SDS011;61859;49.204;8.140;2024-03-23T14:52:12;1.13;;;0.70;;
73575;SDS011;61859;49.204;8.140;2024-03-23T14:54:40;5.03;;;2.83;;
73575;SDS011;61859;49.204;8.140;2024-03-23T14:57:06;5.77;;;3.10;;
73575;SDS011;61859;49.204;8.140;2024-03-23T14:59:34;0.73;;;0.63;;
73575;SDS011;61859;49.204;8.140;2024-03-23T15:02:00;2.10;;;0.50;;
73575;SDS011;61859;49.204;8.140;2024-03-23T15:04:26;9.23;;;5.33;;
73575;SDS011;61859;49.204;8.140;2024-03-23T15:06:51;1.33;;;0.50;;
73575;SDS011;61859;49.204;8.140;2024-03-23T15:09:17;1.83;;;0.90;;
73575;SDS011;61859;49.204;8.140;2024-03-23T15:11:43;3.03;;;1.03;;
73575;SDS011;61859;49.204;8.140;2024-03-23T15:14:09;2.27;;;1.17;;
73575;SDS011;61859;49.204;8.140;2024-03-23T15:16:35;2.27;;;0.97;;
73575;SDS011;61859;49.204;8.140;2024-03-23T15:19:01;1.90;;;0.80;;
73575;SDS011;61859;49.204;8.140;2024-03-23T15:21:27;1.57;;;0.87;;
73575;SDS011;61859;49.204;8.140;2024-03-23T15:23:52;2.87;;;0.93;;
73575;SDS011;61859;49.204;8.140;2024-03-23T15:26:18;3.63;;;0.70;;
73575;SDS011;61859;49.204;8.140;2024-03-23T15:28:47;1.70;;;0.60;;
73575;SDS011;61859;49.204;8.140;2024-03-23T15:31:22;2.00;;;0.57;;
73575;SDS011;61859;49.204;8.140;2024-03-23T15:33:49;1.57;;;1.00;;
73575;SDS011;61859;49.204;8.140;2024-03-23T15:36:14;0.70;;;0.67;;
73575;SDS011;61859;49.204;8.140;2024-03-23T15:38:40;1.27;;;0.90;;
73575;SDS011;61859;49.204;8.140;2024-03-23T15:41:06;1.07;;;0.60;;
73575;SDS011;61859;49.204;8.140;2024-03-23T15:43:32;3.50;;;0.87;;
73575;SDS011;61859;49.204;8.140;2024-03-23T15:45:58;0.97;;;0.60;;